createdAt,value
2022-11-18T00:02:31.415Z,2.70
2022-11-18T00:05:19.936Z,3.00
2022-11-18T00:08:08.476Z,3.07
2022-11-18T00:10:56.895Z,3.90
2022-11-18T00:14:02.973Z,3.13
2022-11-18T00:16:53.737Z,3.00
2022-11-18T00:19:43.641Z,3.27
2022-11-18T00:22:32.064Z,2.93
2022-11-18T00:25:20.556Z,3.87
2022-11-18T00:28:09.032Z,3.13
2022-11-18T00:31:02.678Z,3.03
2022-11-18T00:33:51.165Z,3.30
2022-11-18T00:36:41.178Z,2.93
2022-11-18T00:39:29.632Z,3.13
2022-11-18T00:42:35.730Z,3.00
2022-11-18T00:45:24.744Z,3.20
2022-11-18T00:48:13.204Z,2.80
2022-11-18T00:51:09.088Z,3.10
2022-11-18T00:53:58.878Z,3.43
2022-11-18T00:56:47.377Z,2.60
2022-11-18T00:59:35.866Z,3.03
2022-11-18T01:02:24.379Z,3.07
2022-11-18T01:05:12.828Z,3.00
2022-11-18T01:08:01.244Z,3.03
2022-11-18T01:10:52.321Z,3.00
2022-11-18T01:13:39.801Z,3.47
2022-11-18T01:16:29.483Z,3.17
2022-11-18T01:19:18.628Z,2.90
2022-11-18T01:22:07.355Z,3.33
2022-11-18T01:24:55.822Z,3.57
2022-11-18T01:27:45.640Z,3.67
2022-11-18T01:30:35.469Z,3.13
2022-11-18T01:33:23.916Z,3.10
2022-11-18T01:36:16.755Z,2.50
2022-11-18T01:39:05.300Z,2.67
2022-11-18T01:41:53.938Z,2.33
2022-11-18T01:45:25.633Z,2.97
2022-11-18T01:48:17.113Z,2.50
2022-11-18T01:51:07.456Z,3.07
2022-11-18T01:54:00.900Z,2.00
2022-11-18T01:56:53.151Z,2.60
2022-11-18T01:59:42.791Z,2.80
2022-11-18T02:02:34.929Z,2.47
2022-11-18T02:05:23.677Z,2.20
2022-11-18T02:08:12.456Z,2.30
2022-11-18T02:11:00.921Z,2.43
2022-11-18T02:13:49.432Z,1.40
2022-11-18T02:16:50.057Z,1.87
2022-11-18T02:20:12.906Z,1.70
2022-11-18T02:23:37.244Z,1.20
2022-11-18T02:27:08.679Z,1.77
2022-11-18T02:30:03.563Z,1.30
2022-11-18T02:32:55.859Z,1.87
2022-11-18T02:35:45.863Z,2.00
2022-11-18T02:38:38.749Z,1.43
2022-11-18T02:41:29.387Z,1.70
2022-11-18T02:44:18.922Z,1.60
2022-11-18T02:47:10.740Z,1.80
2022-11-18T02:50:01.600Z,1.47
2022-11-18T02:52:54.339Z,1.53
2022-11-18T02:55:44.224Z,1.80
2022-11-18T02:58:32.616Z,1.80
2022-11-18T03:01:25.354Z,1.90
2022-11-18T03:04:16.774Z,1.83
2022-11-18T03:07:10.946Z,2.00
2022-11-18T03:10:00.760Z,1.60
2022-11-18T03:12:54.144Z,1.73
2022-11-18T03:15:47.639Z,1.53
2022-11-18T03:18:42.649Z,1.73
2022-11-18T03:21:35.121Z,1.67
2022-11-18T03:24:27.707Z,1.40
2022-11-18T03:27:19.543Z,1.90
2022-11-18T03:30:10.297Z,1.93
2022-11-18T03:33:01.375Z,1.50
2022-11-18T03:35:52.639Z,1.70
2022-11-18T03:38:45.515Z,1.60
2022-11-18T03:41:36.504Z,1.57
2022-11-18T03:44:28.681Z,1.43
2022-11-18T03:47:20.368Z,2.00
2022-11-18T03:50:13.438Z,1.57
2022-11-18T03:53:02.625Z,1.73
2022-11-18T03:55:56.340Z,1.60
2022-11-18T03:58:49.262Z,1.93
2022-11-18T04:01:41.639Z,2.07
2022-11-18T04:04:30.422Z,1.50
2022-11-18T04:07:23.399Z,1.80
2022-11-18T04:10:15.302Z,1.60
2022-11-18T04:13:08.480Z,1.47
2022-11-18T04:15:56.969Z,1.80
2022-11-18T04:18:45.433Z,1.70
2022-11-18T04:21:33.943Z,1.60
2022-11-18T04:24:22.418Z,1.20
2022-11-18T04:27:11.220Z,1.40
2022-11-18T04:30:01.035Z,1.70
2022-11-18T04:32:49.633Z,1.40
2022-11-18T04:35:38.115Z,1.70
2022-11-18T04:38:26.566Z,1.80
2022-11-18T04:41:15.083Z,1.50
2022-11-18T04:44:12.820Z,1.60
2022-11-18T04:47:04.960Z,1.53
2022-11-18T04:49:53.418Z,1.30
2022-11-18T04:52:42.033Z,1.20
2022-11-18T04:55:30.472Z,1.67
2022-11-18T04:58:18.934Z,1.20
2022-11-18T05:01:07.454Z,1.57
2022-11-18T05:03:57.712Z,1.60
2022-11-18T05:06:46.420Z,1.30
2022-11-18T05:09:35.156Z,1.50
2022-11-18T05:12:37.550Z,1.33
2022-11-18T05:15:25.977Z,1.67
2022-11-18T05:18:14.437Z,1.37
2022-11-18T05:21:07.903Z,1.40
2022-11-18T05:23:56.338Z,1.60
2022-11-18T05:26:45.190Z,1.40
2022-11-18T05:29:34.015Z,1.40
2022-11-18T05:32:22.502Z,1.07
2022-11-18T05:35:10.919Z,1.40
2022-11-18T05:38:02.527Z,1.20
2022-11-18T05:40:50.971Z,1.20
2022-11-18T05:43:38.424Z,1.30
2022-11-18T05:46:27.316Z,1.50
2022-11-18T05:49:16.161Z,1.60
2022-11-18T05:52:06.475Z,1.63
2022-11-18T05:54:56.283Z,1.47
2022-11-18T05:57:44.722Z,1.50
2022-11-18T06:00:33.595Z,1.63
2022-11-18T06:03:30.296Z,1.40
2022-11-18T06:06:22.860Z,1.73
2022-11-18T06:09:11.895Z,1.60
2022-11-18T06:12:03.115Z,1.53
2022-11-18T06:14:53.631Z,1.90
2022-11-18T06:17:46.347Z,1.40
2022-11-18T06:20:35.410Z,1.33
2022-11-18T06:23:24.052Z,1.30
2022-11-18T06:26:14.891Z,1.33
2022-11-18T06:29:06.426Z,1.30
2022-11-18T06:31:54.860Z,1.57
2022-11-18T06:34:43.300Z,1.10
2022-11-18T06:37:31.710Z,1.43
2022-11-18T06:40:20.176Z,1.50
2022-11-18T06:43:26.630Z,1.57
2022-11-18T06:46:35.876Z,1.40
2022-11-18T06:49:24.651Z,2.10
2022-11-18T06:52:13.056Z,1.90
2022-11-18T06:55:01.691Z,2.07
2022-11-18T06:57:50.125Z,2.53
2022-11-18T07:00:38.626Z,2.07
2022-11-18T07:03:28.432Z,2.00
2022-11-18T07:06:18.681Z,2.30
2022-11-18T07:09:08.241Z,2.77
2022-11-18T07:11:56.793Z,1.90
2022-11-18T07:14:45.311Z,2.17
2022-11-18T07:17:33.931Z,2.40
2022-11-18T07:20:23.719Z,2.40
2022-11-18T07:23:12.196Z,2.83
2022-11-18T07:26:00.777Z,2.63
2022-11-18T07:28:49.295Z,2.03
2022-11-18T07:31:39.648Z,2.20
2022-11-18T07:34:28.138Z,1.97
2022-11-18T07:37:18.023Z,2.00
2022-11-18T07:40:07.898Z,1.67
2022-11-18T07:42:56.433Z,1.47
2022-11-18T07:45:44.889Z,1.60
2022-11-18T07:48:33.359Z,1.60
2022-11-18T07:51:23.287Z,1.60
2022-11-18T07:54:14.413Z,1.67
2022-11-18T07:57:02.854Z,1.50
2022-11-18T07:59:51.282Z,1.60
2022-11-18T08:02:43.565Z,1.70
2022-11-18T08:05:32.058Z,1.77
2022-11-18T08:08:20.604Z,1.50
2022-11-18T08:11:16.246Z,1.37
2022-11-18T08:14:09.020Z,1.60
2022-11-18T08:16:57.559Z,1.40
2022-11-18T08:19:46.009Z,1.53
2022-11-18T08:22:34.503Z,1.30
2022-11-18T08:25:22.996Z,1.67
2022-11-18T08:28:13.404Z,1.73
2022-11-18T08:31:01.940Z,2.00
2022-11-18T08:33:50.455Z,1.70
2022-11-18T08:36:39.607Z,2.20
2022-11-18T08:39:28.100Z,1.70
2022-11-18T08:42:16.629Z,1.97
2022-11-18T08:45:08.421Z,2.50
2022-11-18T08:47:57.117Z,2.13
2022-11-18T08:50:45.604Z,3.80
2022-11-18T08:53:34.120Z,3.80
2022-11-18T08:56:24.206Z,3.30
2022-11-18T08:59:14.768Z,3.80
2022-11-18T09:02:04.676Z,4.00
2022-11-18T09:04:53.613Z,3.73
2022-11-18T09:07:42.126Z,3.13
2022-11-18T09:10:30.632Z,3.23
2022-11-18T09:13:44.769Z,3.17
2022-11-18T09:16:29.129Z,3.80
2022-11-18T09:22:27.823Z,3.97
2022-11-18T09:25:16.453Z,4.60
2022-11-18T09:28:05.026Z,3.33
2022-11-18T09:30:53.496Z,3.40
2022-11-18T09:33:42.444Z,3.90
2022-11-18T09:36:32.280Z,4.00
2022-11-18T09:39:20.878Z,3.90
2022-11-18T09:42:23.956Z,4.30
2022-11-18T09:45:24.593Z,3.77
2022-11-18T09:48:17.548Z,3.70
2022-11-18T09:51:06.511Z,4.30
2022-11-18T09:53:56.391Z,4.93
2022-11-18T09:56:45.014Z,4.80
2022-11-18T09:59:33.694Z,4.27
2022-11-18T10:02:38.832Z,4.83
2022-11-18T10:05:29.309Z,4.90
2022-11-18T10:08:23.449Z,4.20
2022-11-18T10:11:15.827Z,5.67
2022-11-18T10:14:15.833Z,4.77
2022-11-18T10:17:08.998Z,4.47
2022-11-18T10:20:05.215Z,5.30
2022-11-18T10:22:56.651Z,4.70
2022-11-18T10:25:45.139Z,4.10
2022-11-18T10:28:35.166Z,3.87
2022-11-18T10:31:23.598Z,4.10
2022-11-18T10:34:14.532Z,3.60
2022-11-18T10:37:04.843Z,4.23
2022-11-18T10:39:54.776Z,4.50
2022-11-18T10:42:45.965Z,3.70
2022-11-18T10:45:36.030Z,4.40
2022-11-18T10:48:24.579Z,4.27
2022-11-18T10:51:22.671Z,4.67
2022-11-18T10:54:16.488Z,3.70
2022-11-18T10:57:07.684Z,4.40
2022-11-18T10:59:57.743Z,4.10
2022-11-18T11:02:47.682Z,3.90
2022-11-18T11:05:36.153Z,3.57
2022-11-18T11:08:39.808Z,4.90
2022-11-18T11:11:30.072Z,4.57
2022-11-18T11:14:22.719Z,4.80
2022-11-18T11:17:13.802Z,4.03
2022-11-18T11:20:06.978Z,4.77
2022-11-18T11:22:55.885Z,3.70
2022-11-18T11:28:58.017Z,4.00
2022-11-18T11:31:50.720Z,3.57
2022-11-18T11:34:44.681Z,3.97
2022-11-18T11:37:46.570Z,4.17
2022-11-18T11:40:38.605Z,3.60
2022-11-18T11:43:36.578Z,3.60
2022-11-18T11:46:29.520Z,3.50
2022-11-18T11:49:23.409Z,3.20
2022-11-18T11:52:20.563Z,3.40
2022-11-18T11:55:20.098Z,3.30
2022-11-18T11:58:20.702Z,3.30
2022-11-18T12:01:20.674Z,3.43
2022-11-18T12:04:20.021Z,3.80
2022-11-18T12:07:14.330Z,3.27
2022-11-18T12:10:10.193Z,3.60
2022-11-18T12:13:10.741Z,3.70
2022-11-18T12:16:05.230Z,3.40
2022-11-18T12:18:58.541Z,3.40
2022-11-18T12:21:58.199Z,3.20
2022-11-18T12:24:46.658Z,3.80
2022-11-18T12:27:59.100Z,3.80
2022-11-18T12:30:48.974Z,3.80
2022-11-18T12:33:43.561Z,3.60
2022-11-18T12:36:33.410Z,3.50
2022-11-18T12:39:58.607Z,3.13
2022-11-18T12:43:05.750Z,2.93
2022-11-18T12:46:01.503Z,3.00
2022-11-18T12:48:49.950Z,4.20
2022-11-18T12:51:42.342Z,3.10
2022-11-18T12:54:36.076Z,3.30
2022-11-18T12:57:26.238Z,3.13
2022-11-18T13:00:28.108Z,3.03
2022-11-18T13:03:24.265Z,2.80
2022-11-18T13:06:24.685Z,2.23
2022-11-18T13:09:17.460Z,1.90
2022-11-18T13:12:12.688Z,2.23
2022-11-18T13:15:20.543Z,2.10
2022-11-18T13:18:14.313Z,2.23
2022-11-18T13:21:24.271Z,2.37
2022-11-18T13:24:12.712Z,2.17
2022-11-18T13:27:01.208Z,2.30
2022-11-18T13:29:54.241Z,2.23
2022-11-18T13:32:44.569Z,2.07
2022-11-18T13:35:33.087Z,2.40
2022-11-18T13:38:28.492Z,2.10
2022-11-18T13:41:24.057Z,2.40
2022-11-18T13:44:16.254Z,2.43
2022-11-18T13:47:09.841Z,2.00
2022-11-18T13:50:04.834Z,2.30
2022-11-18T13:53:03.119Z,2.03
2022-11-18T13:55:55.259Z,2.00
2022-11-18T13:59:15.887Z,2.40
2022-11-18T14:01:56.226Z,2.13
2022-11-18T14:04:54.269Z,2.50
2022-11-18T14:07:42.813Z,1.97
2022-11-18T14:10:39.137Z,3.10
2022-11-18T14:13:31.748Z,2.90
2022-11-18T14:16:33.155Z,2.70
2022-11-18T14:19:30.351Z,2.93
2022-11-18T14:22:20.825Z,2.70
2022-11-18T14:25:18.158Z,2.53
2022-11-18T14:28:14.445Z,2.87
2022-11-18T14:33:40.352Z,2.93
2022-11-18T14:36:28.897Z,3.53
2022-11-18T14:39:27.526Z,3.20
2022-11-18T14:42:16.732Z,4.00
2022-11-18T14:45:05.702Z,2.83
2022-11-18T14:47:54.155Z,3.60
2022-11-18T14:50:44.155Z,3.80
2022-11-18T14:53:32.646Z,3.37
2022-11-18T14:56:27.488Z,2.50
2022-11-18T14:59:18.073Z,2.67
2022-11-18T15:02:06.591Z,3.90
2022-11-18T15:04:56.119Z,3.90
2022-11-18T15:07:45.947Z,4.33
2022-11-18T15:10:34.534Z,3.67
2022-11-18T15:13:22.959Z,3.70
2022-11-18T15:16:15.010Z,2.90
2022-11-18T15:19:05.947Z,2.70
2022-11-18T15:21:54.462Z,3.60
2022-11-18T15:24:44.353Z,2.90
2022-11-18T15:27:32.828Z,3.00
2022-11-18T15:30:21.687Z,2.93
2022-11-18T15:33:10.131Z,2.60
2022-11-18T15:35:58.652Z,3.27
2022-11-18T15:38:47.743Z,3.50
2022-11-18T15:41:39.327Z,3.30
2022-11-18T15:44:28.466Z,4.67
2022-11-18T15:47:33.465Z,4.57
2022-11-18T15:50:21.970Z,5.00
2022-11-18T15:53:10.398Z,4.80
2022-11-18T15:56:17.270Z,4.23
2022-11-18T15:59:10.707Z,4.20
2022-11-18T16:01:59.226Z,4.57
2022-11-18T16:04:47.782Z,4.10
2022-11-18T16:07:36.270Z,4.10
2022-11-18T16:10:42.552Z,4.50
2022-11-18T16:13:30.997Z,4.57
2022-11-18T16:16:21.631Z,4.37
2022-11-18T16:19:11.426Z,4.50
2022-11-18T16:22:00.041Z,4.33
2022-11-18T16:24:48.718Z,5.07
2022-11-18T16:27:37.354Z,4.17
2022-11-18T16:30:43.171Z,3.77
2022-11-18T16:33:32.976Z,4.13
2022-11-18T16:36:26.928Z,4.93
2022-11-18T16:39:17.097Z,5.47
2022-11-18T16:42:08.634Z,6.53
2022-11-18T16:44:57.620Z,5.67
2022-11-18T16:47:46.597Z,7.07
2022-11-18T16:50:36.387Z,10.10
2022-11-18T16:53:24.850Z,9.37
2022-11-18T16:56:13.366Z,6.87
2022-11-18T16:59:03.522Z,5.80
2022-11-18T17:01:53.351Z,5.50
2022-11-18T17:04:42.214Z,4.60
2022-11-18T17:07:38.086Z,4.30
2022-11-18T17:10:27.207Z,4.77
2022-11-18T17:13:15.724Z,4.20
2022-11-18T17:16:08.705Z,3.50
2022-11-18T17:18:58.515Z,4.20
2022-11-18T17:21:47.133Z,4.20
2022-11-18T17:24:37.002Z,3.87
2022-11-18T17:27:25.530Z,4.40
2022-11-18T17:30:15.321Z,4.20
2022-11-18T17:33:03.888Z,4.20
2022-11-18T17:36:02.241Z,4.00
2022-11-18T17:38:52.062Z,4.40
2022-11-18T17:41:59.683Z,4.43
2022-11-18T17:44:48.138Z,4.47
2022-11-18T17:47:36.657Z,4.83
2022-11-18T17:50:25.324Z,4.70
2022-11-18T17:53:13.882Z,6.30
2022-11-18T17:56:04.162Z,4.40
2022-11-18T17:58:55.657Z,4.77
2022-11-18T18:01:44.288Z,4.90
2022-11-18T18:04:32.825Z,4.53
2022-11-18T18:07:21.296Z,4.40
2022-11-18T18:10:10.644Z,4.67
2022-11-18T18:13:16.859Z,5.20
2022-11-18T18:16:06.971Z,4.87
2022-11-18T18:18:55.779Z,4.57
2022-11-18T18:21:44.477Z,4.37
2022-11-18T18:24:33.058Z,5.07
2022-11-18T18:27:21.511Z,5.50
2022-11-18T18:30:11.371Z,4.73
2022-11-18T18:33:01.245Z,4.90
2022-11-18T18:35:49.718Z,4.07
2022-11-18T18:38:39.334Z,3.97
2022-11-18T18:41:27.857Z,3.67
2022-11-18T18:44:18.823Z,3.40
2022-11-18T18:47:06.568Z,3.97
2022-11-18T18:49:56.452Z,3.80
2022-11-18T18:52:44.939Z,4.27
2022-11-18T18:55:33.425Z,3.77
2022-11-18T18:58:21.838Z,4.20
2022-11-18T19:01:12.403Z,4.77
2022-11-18T19:04:02.142Z,4.37
2022-11-18T19:06:58.968Z,4.53
2022-11-18T19:09:48.498Z,4.63
2022-11-18T19:12:51.683Z,4.33
2022-11-18T19:15:42.337Z,4.70
2022-11-18T19:18:35.291Z,4.57
2022-11-18T19:21:23.766Z,4.57
2022-11-18T19:24:28.667Z,4.87
2022-11-18T19:27:22.183Z,4.73
2022-11-18T19:30:11.847Z,4.13
2022-11-18T19:33:01.231Z,4.90
2022-11-18T19:35:51.110Z,4.43
2022-11-18T19:38:40.403Z,4.13
2022-11-18T19:41:30.285Z,4.10
2022-11-18T19:44:18.739Z,4.37
2022-11-18T19:47:07.249Z,4.53
2022-11-18T19:49:56.051Z,3.90
2022-11-18T19:52:44.519Z,3.60
2022-11-18T19:55:33.241Z,3.63
2022-11-18T19:58:23.125Z,3.80
2022-11-18T20:01:14.030Z,3.60
2022-11-18T20:04:03.157Z,4.00
2022-11-18T20:06:51.732Z,3.50
2022-11-18T20:09:40.273Z,3.30
2022-11-18T20:12:29.696Z,3.80
2022-11-18T20:15:19.552Z,3.17
2022-11-18T20:18:08.106Z,3.50
2022-11-18T20:20:56.532Z,3.30
2022-11-18T20:23:46.195Z,3.40
2022-11-18T20:26:36.530Z,3.80
2022-11-18T20:29:25.201Z,3.60
2022-11-18T20:32:15.159Z,3.53
2022-11-18T20:35:03.660Z,3.90
2022-11-18T20:37:52.120Z,3.90
2022-11-18T20:40:40.619Z,3.70
2022-11-18T20:43:30.452Z,3.60
2022-11-18T20:46:20.953Z,3.20
2022-11-18T20:49:11.461Z,3.73
2022-11-18T20:51:59.990Z,3.70
2022-11-18T20:54:48.536Z,3.20
2022-11-18T20:57:37.103Z,3.60
2022-11-18T21:00:25.575Z,3.40
2022-11-18T21:03:14.071Z,2.87
2022-11-18T21:06:13.598Z,3.07
2022-11-18T21:09:04.785Z,2.63
2022-11-18T21:11:53.224Z,1.97
2022-11-18T21:14:42.105Z,2.17
2022-11-18T21:17:30.539Z,2.30
2022-11-18T21:20:33.050Z,1.97
2022-11-18T21:23:22.929Z,3.00
2022-11-18T21:26:13.426Z,2.47
2022-11-18T21:29:03.564Z,2.37
2022-11-18T21:31:52.665Z,2.47
2022-11-18T21:34:41.227Z,2.43
2022-11-18T21:37:29.686Z,2.50
2022-11-18T21:40:19.967Z,2.03
2022-11-18T21:43:08.431Z,2.47
2022-11-18T21:46:01.568Z,3.23
2022-11-18T21:48:51.252Z,3.40
2022-11-18T21:51:41.057Z,2.73
2022-11-18T21:54:30.615Z,2.97
2022-11-18T21:57:21.230Z,3.73
2022-11-18T22:00:11.481Z,4.30
2022-11-18T22:03:00.276Z,5.20
2022-11-18T22:05:48.771Z,5.20
2022-11-18T22:08:40.966Z,5.60
2022-11-18T22:11:29.839Z,6.33
2022-11-18T22:14:19.837Z,4.80
2022-11-18T22:17:08.863Z,5.90
2022-11-18T22:19:57.421Z,6.30
2022-11-18T22:22:46.012Z,6.90
2022-11-18T22:25:34.557Z,6.37
2022-11-18T22:28:23.591Z,6.33
2022-11-18T22:31:16.115Z,6.37
2022-11-18T22:34:04.914Z,6.47
2022-11-18T22:36:53.382Z,6.10
2022-11-18T22:39:42.280Z,5.60
2022-11-18T22:42:47.345Z,6.13
2022-11-18T22:45:35.793Z,5.37
2022-11-18T22:48:25.586Z,4.63
2022-11-18T22:51:14.084Z,5.77
2022-11-18T22:57:11.002Z,4.20
2022-11-18T22:59:59.451Z,4.27
2022-11-18T23:02:47.924Z,4.53
2022-11-18T23:05:38.256Z,4.53
2022-11-18T23:08:27.671Z,4.67
2022-11-18T23:11:39.053Z,3.90
2022-11-18T23:14:26.574Z,4.20
2022-11-18T23:17:15.955Z,4.10
2022-11-18T23:20:05.133Z,5.17
2022-11-18T23:22:54.882Z,4.57
2022-11-18T23:25:43.365Z,4.30
2022-11-18T23:28:32.072Z,4.10
2022-11-18T23:31:21.984Z,4.90
2022-11-18T23:34:12.389Z,5.10
2022-11-18T23:37:00.812Z,4.73
2022-11-18T23:39:50.590Z,4.47
2022-11-18T23:42:39.026Z,5.70
2022-11-18T23:45:27.487Z,5.53
2022-11-18T23:48:16.058Z,5.07
2022-11-18T23:51:05.862Z,5.50
2022-11-18T23:53:55.664Z,5.20
2022-11-18T23:56:45.500Z,5.40
2022-11-18T23:59:34.160Z,5.00
